sensor_id;sensor_type;location;lat;lon;timestamp;P1;durP1;ratioP1;P2;durP2;ratioP2
52978;SDS011;63430;53.186;6.598;2022-11-20T00:01:45;12.93;;;8.93;;
52978;SDS011;63430;53.186;6.598;2022-11-20T00:03:48;13.20;;;9.23;;
52978;SDS011;63430;53.186;6.598;2022-11-20T00:05:52;12.27;;;9.02;;
52978;SDS011;63430;53.186;6.598;2022-11-20T00:08:01;12.55;;;9.20;;
52978;SDS011;63430;53.186;6.598;2022-11-20T00:10:07;13.60;;;9.05;;
52978;SDS011;63430;53.186;6.598;2022-11-20T00:12:10;13.40;;;8.77;;
52978;SDS011;63430;53.186;6.598;2022-11-20T00:14:12;11.55;;;9.13;;
52978;SDS011;63430;53.186;6.598;2022-11-20T00:16:16;15.07;;;8.93;;
52978;SDS011;63430;53.186;6.598;2022-11-20T00:18:20;14.90;;;9.07;;
52978;SDS011;63430;53.186;6.598;2022-11-20T00:20:23;16.63;;;8.85;;
52978;SDS011;63430;53.186;6.598;2022-11-20T00:22:25;12.10;;;8.60;;
52978;SDS011;63430;53.186;6.598;2022-11-20T00:24:28;14.50;;;8.25;;
52978;SDS011;63430;53.186;6.598;2022-11-20T00:26:33;11.23;;;7.97;;
52978;SDS011;63430;53.186;6.598;2022-11-20T00:28:35;10.68;;;7.80;;
52978;SDS011;63430;53.186;6.598;2022-11-20T00:30:41;15.18;;;7.75;;
52978;SDS011;63430;53.186;6.598;2022-11-20T00:32:43;13.43;;;8.98;;
52978;SDS011;63430;53.186;6.598;2022-11-20T00:34:46;11.32;;;8.02;;
52978;SDS011;63430;53.186;6.598;2022-11-20T00:36:49;16.80;;;9.05;;
52978;SDS011;63430;53.186;6.598;2022-11-20T00:38:51;12.63;;;8.55;;
52978;SDS011;63430;53.186;6.598;2022-11-20T00:40:56;18.13;;;9.25;;
52978;SDS011;63430;53.186;6.598;2022-11-20T00:43:01;13.25;;;8.75;;
52978;SDS011;63430;53.186;6.598;2022-11-20T00:45:05;14.60;;;8.00;;
52978;SDS011;63430;53.186;6.598;2022-11-20T00:47:08;10.40;;;6.15;;
52978;SDS011;63430;53.186;6.598;2022-11-20T00:49:11;10.93;;;7.30;;
52978;SDS011;63430;53.186;6.598;2022-11-20T00:51:15;14.48;;;7.07;;
52978;SDS011;63430;53.186;6.598;2022-11-20T00:53:20;11.30;;;7.50;;
52978;SDS011;63430;53.186;6.598;2022-11-20T00:55:23;11.25;;;8.27;;
52978;SDS011;63430;53.186;6.598;2022-11-20T00:57:26;12.70;;;8.13;;
52978;SDS011;63430;53.186;6.598;2022-11-20T00:59:31;12.10;;;8.40;;
52978;SDS011;63430;53.186;6.598;2022-11-20T01:01:33;13.73;;;7.43;;
52978;SDS011;63430;53.186;6.598;2022-11-20T01:03:38;8.20;;;6.63;;
52978;SDS011;63430;53.186;6.598;2022-11-20T01:05:41;11.80;;;6.97;;
52978;SDS011;63430;53.186;6.598;2022-11-20T01:07:44;12.38;;;8.20;;
52978;SDS011;63430;53.186;6.598;2022-11-20T01:09:46;11.50;;;7.35;;
52978;SDS011;63430;53.186;6.598;2022-11-20T01:11:49;10.82;;;7.07;;
52978;SDS011;63430;53.186;6.598;2022-11-20T01:13:52;13.27;;;7.30;;
52978;SDS011;63430;53.186;6.598;2022-11-20T01:16:04;11.73;;;8.18;;
52978;SDS011;63430;53.186;6.598;2022-11-20T01:18:07;11.95;;;8.07;;
52978;SDS011;63430;53.186;6.598;2022-11-20T01:20:10;19.75;;;8.05;;
52978;SDS011;63430;53.186;6.598;2022-11-20T01:22:16;11.10;;;7.65;;
52978;SDS011;63430;53.186;6.598;2022-11-20T01:24:19;13.13;;;7.57;;
52978;SDS011;63430;53.186;6.598;2022-11-20T01:26:23;12.35;;;7.75;;
52978;SDS011;63430;53.186;6.598;2022-11-20T01:28:28;13.07;;;8.07;;
52978;SDS011;63430;53.186;6.598;2022-11-20T01:30:33;13.07;;;7.10;;
52978;SDS011;63430;53.186;6.598;2022-11-20T01:32:39;15.60;;;7.20;;
52978;SDS011;63430;53.186;6.598;2022-11-20T01:34:42;12.43;;;7.85;;
52978;SDS011;63430;53.186;6.598;2022-11-20T01:36:44;13.13;;;8.05;;
52978;SDS011;63430;53.186;6.598;2022-11-20T01:38:47;9.10;;;7.53;;
52978;SDS011;63430;53.186;6.598;2022-11-20T01:40:54;13.43;;;7.93;;
52978;SDS011;63430;53.186;6.598;2022-11-20T01:43:00;12.18;;;8.77;;
52978;SDS011;63430;53.186;6.598;2022-11-20T01:47:57;11.40;;;8.13;;
52978;SDS011;63430;53.186;6.598;2022-11-20T01:50:01;10.13;;;7.18;;
52978;SDS011;63430;53.186;6.598;2022-11-20T01:52:07;11.43;;;7.50;;
52978;SDS011;63430;53.186;6.598;2022-11-20T01:54:17;13.90;;;8.75;;
52978;SDS011;63430;53.186;6.598;2022-11-20T01:56:25;11.45;;;8.00;;
52978;SDS011;63430;53.186;6.598;2022-11-20T01:58:31;10.32;;;7.50;;
52978;SDS011;63430;53.186;6.598;2022-11-20T02:00:37;13.45;;;7.72;;
52978;SDS011;63430;53.186;6.598;2022-11-20T02:02:40;13.77;;;7.88;;
52978;SDS011;63430;53.186;6.598;2022-11-20T02:04:48;13.85;;;8.30;;
52978;SDS011;63430;53.186;6.598;2022-11-20T02:06:54;12.60;;;7.75;;
52978;SDS011;63430;53.186;6.598;2022-11-20T02:09:00;13.13;;;7.90;;
52978;SDS011;63430;53.186;6.598;2022-11-20T02:11:03;11.27;;;7.30;;
52978;SDS011;63430;53.186;6.598;2022-11-20T02:13:06;11.75;;;7.28;;
52978;SDS011;63430;53.186;6.598;2022-11-20T02:15:28;12.43;;;7.35;;
52978;SDS011;63430;53.186;6.598;2022-11-20T02:19:35;9.77;;;7.30;;
52978;SDS011;63430;53.186;6.598;2022-11-20T02:21:43;11.43;;;8.35;;
52978;SDS011;63430;53.186;6.598;2022-11-20T02:23:56;11.77;;;7.60;;
52978;SDS011;63430;53.186;6.598;2022-11-20T02:26:04;10.43;;;7.57;;
52978;SDS011;63430;53.186;6.598;2022-11-20T02:28:10;13.55;;;7.88;;
52978;SDS011;63430;53.186;6.598;2022-11-20T02:30:15;13.23;;;8.38;;
52978;SDS011;63430;53.186;6.598;2022-11-20T02:32:18;15.05;;;8.63;;
52978;SDS011;63430;53.186;6.598;2022-11-20T02:34:22;10.98;;;7.47;;
52978;SDS011;63430;53.186;6.598;2022-11-20T02:36:26;12.85;;;8.32;;
52978;SDS011;63430;53.186;6.598;2022-11-20T02:38:32;11.75;;;7.70;;
52978;SDS011;63430;53.186;6.598;2022-11-20T02:40:40;13.13;;;7.63;;
52978;SDS011;63430;53.186;6.598;2022-11-20T02:42:43;12.50;;;8.43;;
52978;SDS011;63430;53.186;6.598;2022-11-20T02:44:45;15.35;;;9.30;;
52978;SDS011;63430;53.186;6.598;2022-11-20T02:46:48;10.55;;;8.45;;
52978;SDS011;63430;53.186;6.598;2022-11-20T02:48:51;17.60;;;8.60;;
52978;SDS011;63430;53.186;6.598;2022-11-20T02:50:53;12.18;;;8.52;;
52978;SDS011;63430;53.186;6.598;2022-11-20T02:52:56;16.15;;;9.23;;
52978;SDS011;63430;53.186;6.598;2022-11-20T02:54:58;13.38;;;8.02;;
52978;SDS011;63430;53.186;6.598;2022-11-20T02:57:06;15.05;;;8.85;;
52978;SDS011;63430;53.186;6.598;2022-11-20T02:59:09;17.83;;;10.57;;
52978;SDS011;63430;53.186;6.598;2022-11-20T03:01:12;13.85;;;9.10;;
52978;SDS011;63430;53.186;6.598;2022-11-20T03:03:14;12.82;;;9.32;;
52978;SDS011;63430;53.186;6.598;2022-11-20T03:05:18;13.32;;;9.13;;
52978;SDS011;63430;53.186;6.598;2022-11-20T03:07:21;16.73;;;9.20;;
52978;SDS011;63430;53.186;6.598;2022-11-20T03:09:25;18.70;;;9.32;;
52978;SDS011;63430;53.186;6.598;2022-11-20T03:11:28;15.15;;;8.68;;
52978;SDS011;63430;53.186;6.598;2022-11-20T03:13:36;12.57;;;8.02;;
52978;SDS011;63430;53.186;6.598;2022-11-20T03:15:38;12.43;;;8.38;;
52978;SDS011;63430;53.186;6.598;2022-11-20T03:17:41;14.10;;;7.95;;
52978;SDS011;63430;53.186;6.598;2022-11-20T03:19:43;13.77;;;8.25;;
52978;SDS011;63430;53.186;6.598;2022-11-20T03:21:47;22.02;;;8.73;;
52978;SDS011;63430;53.186;6.598;2022-11-20T03:23:49;13.30;;;7.70;;
52978;SDS011;63430;53.186;6.598;2022-11-20T03:25:52;15.77;;;9.23;;
52978;SDS011;63430;53.186;6.598;2022-11-20T03:27:54;12.48;;;7.30;;
52978;SDS011;63430;53.186;6.598;2022-11-20T03:29:59;10.45;;;7.35;;
52978;SDS011;63430;53.186;6.598;2022-11-20T03:32:02;12.23;;;7.90;;
52978;SDS011;63430;53.186;6.598;2022-11-20T03:34:06;13.43;;;7.63;;
52978;SDS011;63430;53.186;6.598;2022-11-20T03:38:13;12.32;;;7.10;;
52978;SDS011;63430;53.186;6.598;2022-11-20T03:40:16;10.48;;;7.30;;
52978;SDS011;63430;53.186;6.598;2022-11-20T03:42:18;12.07;;;6.60;;
52978;SDS011;63430;53.186;6.598;2022-11-20T03:44:42;11.15;;;7.68;;
52978;SDS011;63430;53.186;6.598;2022-11-20T03:46:47;13.32;;;7.97;;
52978;SDS011;63430;53.186;6.598;2022-11-20T03:48:50;14.10;;;7.43;;
52978;SDS011;63430;53.186;6.598;2022-11-20T03:50:53;11.20;;;7.45;;
52978;SDS011;63430;53.186;6.598;2022-11-20T03:55:09;10.73;;;7.13;;
52978;SDS011;63430;53.186;6.598;2022-11-20T03:57:12;11.88;;;6.57;;
52978;SDS011;63430;53.186;6.598;2022-11-20T03:59:14;10.60;;;7.50;;
52978;SDS011;63430;53.186;6.598;2022-11-20T04:01:18;11.38;;;6.50;;
52978;SDS011;63430;53.186;6.598;2022-11-20T04:03:24;11.65;;;8.10;;
52978;SDS011;63430;53.186;6.598;2022-11-20T04:05:27;11.73;;;7.43;;
52978;SDS011;63430;53.186;6.598;2022-11-20T04:07:30;10.32;;;7.45;;
52978;SDS011;63430;53.186;6.598;2022-11-20T04:09:35;12.48;;;7.72;;
52978;SDS011;63430;53.186;6.598;2022-11-20T04:11:39;14.65;;;7.50;;
52978;SDS011;63430;53.186;6.598;2022-11-20T04:13:42;11.98;;;7.70;;
52978;SDS011;63430;53.186;6.598;2022-11-20T04:15:48;10.68;;;7.97;;
52978;SDS011;63430;53.186;6.598;2022-11-20T04:17:51;9.90;;;6.93;;
52978;SDS011;63430;53.186;6.598;2022-11-20T04:19:56;11.88;;;7.50;;
52978;SDS011;63430;53.186;6.598;2022-11-20T04:21:59;10.77;;;7.13;;
52978;SDS011;63430;53.186;6.598;2022-11-20T04:24:01;10.77;;;6.75;;
52978;SDS011;63430;53.186;6.598;2022-11-20T04:26:08;11.00;;;6.45;;
52978;SDS011;63430;53.186;6.598;2022-11-20T04:28:12;13.25;;;7.65;;
52978;SDS011;63430;53.186;6.598;2022-11-20T04:30:15;10.40;;;7.15;;
52978;SDS011;63430;53.186;6.598;2022-11-20T04:32:20;12.20;;;7.03;;
52978;SDS011;63430;53.186;6.598;2022-11-20T04:34:23;12.48;;;6.72;;
52978;SDS011;63430;53.186;6.598;2022-11-20T04:36:29;11.25;;;6.82;;
52978;SDS011;63430;53.186;6.598;2022-11-20T04:38:32;10.25;;;7.05;;
52978;SDS011;63430;53.186;6.598;2022-11-20T04:40:38;9.63;;;6.82;;
52978;SDS011;63430;53.186;6.598;2022-11-20T04:42:41;12.82;;;7.60;;
52978;SDS011;63430;53.186;6.598;2022-11-20T04:44:43;12.90;;;7.22;;
52978;SDS011;63430;53.186;6.598;2022-11-20T04:46:46;15.40;;;7.57;;
52978;SDS011;63430;53.186;6.598;2022-11-20T04:48:48;12.95;;;8.15;;
52978;SDS011;63430;53.186;6.598;2022-11-20T04:50:51;11.00;;;7.72;;
52978;SDS011;63430;53.186;6.598;2022-11-20T04:52:56;10.98;;;7.00;;
52978;SDS011;63430;53.186;6.598;2022-11-20T04:54:59;10.98;;;7.03;;
52978;SDS011;63430;53.186;6.598;2022-11-20T04:57:01;12.00;;;6.97;;
52978;SDS011;63430;53.186;6.598;2022-11-20T04:59:04;12.35;;;6.30;;
52978;SDS011;63430;53.186;6.598;2022-11-20T05:01:07;9.00;;;6.22;;
52978;SDS011;63430;53.186;6.598;2022-11-20T05:03:14;9.88;;;6.43;;
52978;SDS011;63430;53.186;6.598;2022-11-20T05:05:17;10.63;;;7.05;;
52978;SDS011;63430;53.186;6.598;2022-11-20T05:07:20;12.70;;;7.70;;
52978;SDS011;63430;53.186;6.598;2022-11-20T05:09:29;11.05;;;6.88;;
52978;SDS011;63430;53.186;6.598;2022-11-20T05:11:31;11.45;;;6.57;;
52978;SDS011;63430;53.186;6.598;2022-11-20T05:13:34;9.85;;;7.00;;
52978;SDS011;63430;53.186;6.598;2022-11-20T05:15:37;14.70;;;7.68;;
52978;SDS011;63430;53.186;6.598;2022-11-20T05:17:39;11.45;;;6.70;;
52978;SDS011;63430;53.186;6.598;2022-11-20T05:19:42;10.43;;;6.93;;
52978;SDS011;63430;53.186;6.598;2022-11-20T05:21:44;10.38;;;7.07;;
52978;SDS011;63430;53.186;6.598;2022-11-20T05:23:47;8.90;;;6.32;;
52978;SDS011;63430;53.186;6.598;2022-11-20T05:25:55;12.00;;;7.38;;
52978;SDS011;63430;53.186;6.598;2022-11-20T05:28:00;10.73;;;7.65;;
52978;SDS011;63430;53.186;6.598;2022-11-20T05:30:06;11.77;;;6.75;;
52978;SDS011;63430;53.186;6.598;2022-11-20T05:32:10;12.48;;;7.38;;
52978;SDS011;63430;53.186;6.598;2022-11-20T05:34:12;11.45;;;6.97;;
52978;SDS011;63430;53.186;6.598;2022-11-20T05:36:15;9.23;;;6.53;;
52978;SDS011;63430;53.186;6.598;2022-11-20T05:38:21;9.32;;;6.80;;
52978;SDS011;63430;53.186;6.598;2022-11-20T05:40:24;11.55;;;6.80;;
52978;SDS011;63430;53.186;6.598;2022-11-20T05:42:29;12.13;;;7.35;;
52978;SDS011;63430;53.186;6.598;2022-11-20T05:44:32;9.07;;;6.20;;
52978;SDS011;63430;53.186;6.598;2022-11-20T05:46:35;12.90;;;7.53;;
52978;SDS011;63430;53.186;6.598;2022-11-20T05:48:38;12.75;;;7.50;;
52978;SDS011;63430;53.186;6.598;2022-11-20T05:50:41;10.73;;;6.75;;
52978;SDS011;63430;53.186;6.598;2022-11-20T05:52:44;11.77;;;6.75;;
52978;SDS011;63430;53.186;6.598;2022-11-20T05:54:46;15.02;;;7.22;;
52978;SDS011;63430;53.186;6.598;2022-11-20T05:56:49;16.27;;;7.15;;
52978;SDS011;63430;53.186;6.598;2022-11-20T05:58:54;12.60;;;7.28;;
52978;SDS011;63430;53.186;6.598;2022-11-20T06:01:02;10.10;;;6.25;;
52978;SDS011;63430;53.186;6.598;2022-11-20T06:03:06;11.75;;;7.82;;
52978;SDS011;63430;53.186;6.598;2022-11-20T06:05:09;12.82;;;7.78;;
52978;SDS011;63430;53.186;6.598;2022-11-20T06:07:15;10.88;;;6.88;;
52978;SDS011;63430;53.186;6.598;2022-11-20T06:09:18;10.73;;;6.45;;
52978;SDS011;63430;53.186;6.598;2022-11-20T06:11:23;12.32;;;7.25;;
52978;SDS011;63430;53.186;6.598;2022-11-20T06:13:26;13.48;;;7.72;;
52978;SDS011;63430;53.186;6.598;2022-11-20T06:15:31;12.02;;;6.80;;
52978;SDS011;63430;53.186;6.598;2022-11-20T06:17:34;10.70;;;7.10;;
52978;SDS011;63430;53.186;6.598;2022-11-20T06:19:37;9.32;;;6.50;;
52978;SDS011;63430;53.186;6.598;2022-11-20T06:21:41;10.80;;;6.20;;
52978;SDS011;63430;53.186;6.598;2022-11-20T06:23:44;11.98;;;6.60;;
52978;SDS011;63430;53.186;6.598;2022-11-20T06:25:47;10.73;;;6.83;;
52978;SDS011;63430;53.186;6.598;2022-11-20T06:27:51;11.80;;;7.25;;
52978;SDS011;63430;53.186;6.598;2022-11-20T06:29:53;10.65;;;6.65;;
52978;SDS011;63430;53.186;6.598;2022-11-20T06:31:59;10.00;;;5.80;;
52978;SDS011;63430;53.186;6.598;2022-11-20T06:34:01;8.65;;;6.13;;
52978;SDS011;63430;53.186;6.598;2022-11-20T06:36:05;10.87;;;6.90;;
52978;SDS011;63430;53.186;6.598;2022-11-20T06:38:11;8.93;;;6.30;;
52978;SDS011;63430;53.186;6.598;2022-11-20T06:40:15;12.10;;;6.82;;
52978;SDS011;63430;53.186;6.598;2022-11-20T06:42:17;9.23;;;6.45;;
52978;SDS011;63430;53.186;6.598;2022-11-20T06:44:20;9.48;;;5.95;;
52978;SDS011;63430;53.186;6.598;2022-11-20T06:46:23;7.40;;;6.15;;
52978;SDS011;63430;53.186;6.598;2022-11-20T06:48:28;12.63;;;7.55;;
52978;SDS011;63430;53.186;6.598;2022-11-20T06:50:31;12.57;;;7.45;;
52978;SDS011;63430;53.186;6.598;2022-11-20T06:52:33;9.75;;;6.80;;
52978;SDS011;63430;53.186;6.598;2022-11-20T06:54:45;11.52;;;7.00;;
52978;SDS011;63430;53.186;6.598;2022-11-20T06:56:47;10.43;;;6.43;;
52978;SDS011;63430;53.186;6.598;2022-11-20T06:58:50;11.65;;;6.72;;
52978;SDS011;63430;53.186;6.598;2022-11-20T07:00:53;12.27;;;6.88;;
52978;SDS011;63430;53.186;6.598;2022-11-20T07:02:55;9.90;;;6.68;;
52978;SDS011;63430;53.186;6.598;2022-11-20T07:05:00;11.38;;;6.63;;
52978;SDS011;63430;53.186;6.598;2022-11-20T07:07:03;9.50;;;5.88;;
52978;SDS011;63430;53.186;6.598;2022-11-20T07:09:06;11.90;;;6.40;;
52978;SDS011;63430;53.186;6.598;2022-11-20T07:11:22;7.85;;;5.93;;
52978;SDS011;63430;53.186;6.598;2022-11-20T07:13:25;10.82;;;7.00;;
52978;SDS011;63430;53.186;6.598;2022-11-20T07:15:28;14.48;;;7.57;;
52978;SDS011;63430;53.186;6.598;2022-11-20T07:17:31;7.97;;;5.78;;
52978;SDS011;63430;53.186;6.598;2022-11-20T07:19:35;11.00;;;7.35;;
52978;SDS011;63430;53.186;6.598;2022-11-20T07:21:41;10.45;;;6.13;;
52978;SDS011;63430;53.186;6.598;2022-11-20T07:23:43;10.85;;;6.20;;
52978;SDS011;63430;53.186;6.598;2022-11-20T07:25:49;7.78;;;5.72;;
52978;SDS011;63430;53.186;6.598;2022-11-20T07:27:51;12.25;;;6.30;;
52978;SDS011;63430;53.186;6.598;2022-11-20T07:29:58;12.38;;;6.22;;
52978;SDS011;63430;53.186;6.598;2022-11-20T07:32:01;8.50;;;6.47;;
52978;SDS011;63430;53.186;6.598;2022-11-20T07:34:05;11.95;;;7.25;;
52978;SDS011;63430;53.186;6.598;2022-11-20T07:36:08;13.73;;;8.15;;
52978;SDS011;63430;53.186;6.598;2022-11-20T07:38:14;7.80;;;6.53;;
52978;SDS011;63430;53.186;6.598;2022-11-20T07:40:19;12.23;;;7.18;;
52978;SDS011;63430;53.186;6.598;2022-11-20T07:42:24;10.38;;;7.35;;
52978;SDS011;63430;53.186;6.598;2022-11-20T07:44:27;12.48;;;6.80;;
52978;SDS011;63430;53.186;6.598;2022-11-20T07:46:29;8.88;;;6.10;;
52978;SDS011;63430;53.186;6.598;2022-11-20T07:48:32;9.57;;;6.40;;
52978;SDS011;63430;53.186;6.598;2022-11-20T07:50:35;9.80;;;6.35;;
52978;SDS011;63430;53.186;6.598;2022-11-20T07:52:39;9.93;;;6.47;;
52978;SDS011;63430;53.186;6.598;2022-11-20T07:54:44;9.07;;;6.72;;
52978;SDS011;63430;53.186;6.598;2022-11-20T07:56:47;8.13;;;6.13;;
52978;SDS011;63430;53.186;6.598;2022-11-20T07:58:53;11.32;;;6.80;;
52978;SDS011;63430;53.186;6.598;2022-11-20T08:01:01;12.20;;;6.38;;
52978;SDS011;63430;53.186;6.598;2022-11-20T08:03:07;8.65;;;6.13;;
52978;SDS011;63430;53.186;6.598;2022-11-20T08:05:10;9.98;;;6.68;;
52978;SDS011;63430;53.186;6.598;2022-11-20T08:07:15;12.95;;;6.80;;
52978;SDS011;63430;53.186;6.598;2022-11-20T08:09:23;8.82;;;6.82;;
52978;SDS011;63430;53.186;6.598;2022-11-20T08:11:28;11.10;;;6.78;;
52978;SDS011;63430;53.186;6.598;2022-11-20T08:16:12;15.35;;;7.13;;
52978;SDS011;63430;53.186;6.598;2022-11-20T08:18:14;7.90;;;5.68;;
52978;SDS011;63430;53.186;6.598;2022-11-20T08:20:33;9.95;;;6.25;;
52978;SDS011;63430;53.186;6.598;2022-11-20T08:22:36;9.00;;;6.23;;
52978;SDS011;63430;53.186;6.598;2022-11-20T08:24:38;10.07;;;6.88;;
52978;SDS011;63430;53.186;6.598;2022-11-20T08:26:43;10.32;;;6.68;;
52978;SDS011;63430;53.186;6.598;2022-11-20T08:28:46;10.20;;;6.28;;
52978;SDS011;63430;53.186;6.598;2022-11-20T08:30:57;12.57;;;7.35;;
52978;SDS011;63430;53.186;6.598;2022-11-20T08:33:01;10.40;;;6.10;;
52978;SDS011;63430;53.186;6.598;2022-11-20T08:35:06;10.55;;;5.95;;
52978;SDS011;63430;53.186;6.598;2022-11-20T08:37:10;9.73;;;6.88;;
52978;SDS011;63430;53.186;6.598;2022-11-20T08:39:13;9.05;;;6.20;;
52978;SDS011;63430;53.186;6.598;2022-11-20T08:41:19;9.18;;;6.43;;
52978;SDS011;63430;53.186;6.598;2022-11-20T08:43:28;10.77;;;6.72;;
52978;SDS011;63430;53.186;6.598;2022-11-20T08:45:36;11.80;;;6.38;;
52978;SDS011;63430;53.186;6.598;2022-11-20T08:47:39;11.63;;;7.15;;
52978;SDS011;63430;53.186;6.598;2022-11-20T08:49:48;9.88;;;6.85;;
52978;SDS011;63430;53.186;6.598;2022-11-20T08:51:53;11.43;;;6.35;;
52978;SDS011;63430;53.186;6.598;2022-11-20T08:53:56;12.30;;;6.35;;
52978;SDS011;63430;53.186;6.598;2022-11-20T08:55:59;8.65;;;6.40;;
52978;SDS011;63430;53.186;6.598;2022-11-20T08:58:05;10.70;;;7.07;;
52978;SDS011;63430;53.186;6.598;2022-11-20T09:00:12;10.40;;;7.18;;
52978;SDS011;63430;53.186;6.598;2022-11-20T09:02:19;10.43;;;6.18;;
52978;SDS011;63430;53.186;6.598;2022-11-20T09:04:25;13.18;;;6.90;;
52978;SDS011;63430;53.186;6.598;2022-11-20T09:06:28;10.45;;;6.90;;
52978;SDS011;63430;53.186;6.598;2022-11-20T09:08:36;10.13;;;6.35;;
52978;SDS011;63430;53.186;6.598;2022-11-20T09:10:38;9.85;;;6.00;;
52978;SDS011;63430;53.186;6.598;2022-11-20T09:12:48;9.60;;;6.22;;
52978;SDS011;63430;53.186;6.598;2022-11-20T09:14:54;10.68;;;6.47;;
52978;SDS011;63430;53.186;6.598;2022-11-20T09:17:00;8.82;;;6.70;;
52978;SDS011;63430;53.186;6.598;2022-11-20T09:19:03;9.10;;;5.88;;
52978;SDS011;63430;53.186;6.598;2022-11-20T09:21:27;9.90;;;6.03;;
52978;SDS011;63430;53.186;6.598;2022-11-20T09:23:31;11.43;;;6.35;;
52978;SDS011;63430;53.186;6.598;2022-11-20T09:25:36;10.25;;;6.20;;
52978;SDS011;63430;53.186;6.598;2022-11-20T09:27:40;11.23;;;6.20;;
52978;SDS011;63430;53.186;6.598;2022-11-20T09:29:51;11.52;;;6.32;;
52978;SDS011;63430;53.186;6.598;2022-11-20T09:31:54;8.68;;;5.47;;
52978;SDS011;63430;53.186;6.598;2022-11-20T09:33:59;10.20;;;5.63;;
52978;SDS011;63430;53.186;6.598;2022-11-20T09:36:05;6.70;;;5.03;;
52978;SDS011;63430;53.186;6.598;2022-11-20T09:38:07;9.13;;;6.03;;
52978;SDS011;63430;53.186;6.598;2022-11-20T09:40:16;11.48;;;6.38;;
52978;SDS011;63430;53.186;6.598;2022-11-20T09:42:30;7.95;;;5.70;;
52978;SDS011;63430;53.186;6.598;2022-11-20T09:44:48;9.63;;;6.25;;
52978;SDS011;63430;53.186;6.598;2022-11-20T09:46:59;7.15;;;4.63;;
52978;SDS011;63430;53.186;6.598;2022-11-20T09:49:18;10.25;;;6.03;;
52978;SDS011;63430;53.186;6.598;2022-11-20T09:51:38;10.50;;;5.75;;
52978;SDS011;63430;53.186;6.598;2022-11-20T09:53:50;11.20;;;5.65;;
52978;SDS011;63430;53.186;6.598;2022-11-20T09:56:02;9.32;;;6.57;;
52978;SDS011;63430;53.186;6.598;2022-11-20T10:00:10;9.23;;;5.93;;
52978;SDS011;63430;53.186;6.598;2022-11-20T10:02:16;8.75;;;5.75;;
52978;SDS011;63430;53.186;6.598;2022-11-20T10:04:31;9.68;;;5.82;;
52978;SDS011;63430;53.186;6.598;2022-11-20T10:06:41;8.60;;;5.28;;
52978;SDS011;63430;53.186;6.598;2022-11-20T10:09:14;8.10;;;5.40;;
52978;SDS011;63430;53.186;6.598;2022-11-20T10:11:32;13.55;;;5.93;;
52978;SDS011;63430;53.186;6.598;2022-11-20T10:13:48;9.10;;;5.50;;
52978;SDS011;63430;53.186;6.598;2022-11-20T10:16:03;8.40;;;5.93;;
52978;SDS011;63430;53.186;6.598;2022-11-20T10:18:22;7.45;;;5.55;;
52978;SDS011;63430;53.186;6.598;2022-11-20T10:20:40;9.50;;;5.93;;
52978;SDS011;63430;53.186;6.598;2022-11-20T10:22:51;9.45;;;5.45;;
52978;SDS011;63430;53.186;6.598;2022-11-20T10:25:01;8.75;;;5.32;;
52978;SDS011;63430;53.186;6.598;2022-11-20T10:27:18;9.63;;;5.68;;
52978;SDS011;63430;53.186;6.598;2022-11-20T10:29:36;8.93;;;5.47;;
52978;SDS011;63430;53.186;6.598;2022-11-20T10:31:41;10.48;;;6.10;;
52978;SDS011;63430;53.186;6.598;2022-11-20T10:33:45;9.55;;;5.63;;
52978;SDS011;63430;53.186;6.598;2022-11-20T10:36:15;9.52;;;5.38;;
52978;SDS011;63430;53.186;6.598;2022-11-20T10:38:24;9.75;;;5.75;;
52978;SDS011;63430;53.186;6.598;2022-11-20T10:40:34;8.45;;;5.45;;
52978;SDS011;63430;53.186;6.598;2022-11-20T10:42:41;7.93;;;5.03;;
52978;SDS011;63430;53.186;6.598;2022-11-20T10:44:47;9.55;;;5.07;;
52978;SDS011;63430;53.186;6.598;2022-11-20T10:47:11;7.45;;;5.13;;
52978;SDS011;63430;53.186;6.598;2022-11-20T10:49:16;8.32;;;5.47;;
52978;SDS011;63430;53.186;6.598;2022-11-20T10:51:30;8.55;;;5.75;;
52978;SDS011;63430;53.186;6.598;2022-11-20T10:53:45;8.70;;;5.20;;
52978;SDS011;63430;53.186;6.598;2022-11-20T10:55:57;9.82;;;5.32;;
52978;SDS011;63430;53.186;6.598;2022-11-20T10:58:14;9.60;;;5.55;;
52978;SDS011;63430;53.186;6.598;2022-11-20T11:00:24;9.30;;;5.35;;
52978;SDS011;63430;53.186;6.598;2022-11-20T11:02:32;7.18;;;5.13;;
52978;SDS011;63430;53.186;6.598;2022-11-20T11:04:37;10.05;;;5.65;;
52978;SDS011;63430;53.186;6.598;2022-11-20T11:06:48;9.10;;;5.38;;
52978;SDS011;63430;53.186;6.598;2022-11-20T11:08:51;8.68;;;5.30;;
52978;SDS011;63430;53.186;6.598;2022-11-20T11:10:57;7.60;;;5.32;;
52978;SDS011;63430;53.186;6.598;2022-11-20T11:13:03;7.93;;;5.10;;
52978;SDS011;63430;53.186;6.598;2022-11-20T11:15:11;8.65;;;5.47;;
52978;SDS011;63430;53.186;6.598;2022-11-20T11:17:26;11.50;;;5.88;;
52978;SDS011;63430;53.186;6.598;2022-11-20T11:19:33;10.05;;;5.95;;
52978;SDS011;63430;53.186;6.598;2022-11-20T11:21:35;8.30;;;5.53;;
52978;SDS011;63430;53.186;6.598;2022-11-20T11:23:45;12.50;;;6.13;;
52978;SDS011;63430;53.186;6.598;2022-11-20T11:25:56;7.70;;;5.22;;
52978;SDS011;63430;53.186;6.598;2022-11-20T11:28:02;8.35;;;5.47;;
52978;SDS011;63430;53.186;6.598;2022-11-20T11:30:13;6.50;;;4.70;;
52978;SDS011;63430;53.186;6.598;2022-11-20T11:32:18;11.63;;;6.65;;
52978;SDS011;63430;53.186;6.598;2022-11-20T11:34:22;9.45;;;5.30;;
52978;SDS011;63430;53.186;6.598;2022-11-20T11:36:25;7.72;;;4.85;;
52978;SDS011;63430;53.186;6.598;2022-11-20T11:38:30;13.38;;;5.60;;
52978;SDS011;63430;53.186;6.598;2022-11-20T11:40:39;12.50;;;5.18;;
52978;SDS011;63430;53.186;6.598;2022-11-20T11:42:44;10.35;;;5.20;;
52978;SDS011;63430;53.186;6.598;2022-11-20T11:44:51;20.05;;;6.93;;
52978;SDS011;63430;53.186;6.598;2022-11-20T11:47:11;8.43;;;5.63;;
52978;SDS011;63430;53.186;6.598;2022-11-20T11:49:21;11.13;;;5.63;;
52978;SDS011;63430;53.186;6.598;2022-11-20T11:51:25;9.13;;;5.07;;
52978;SDS011;63430;53.186;6.598;2022-11-20T11:53:31;11.05;;;5.80;;
52978;SDS011;63430;53.186;6.598;2022-11-20T11:55:40;8.35;;;5.18;;
52978;SDS011;63430;53.186;6.598;2022-11-20T11:57:49;7.85;;;5.20;;
52978;SDS011;63430;53.186;6.598;2022-11-20T11:59:59;7.63;;;5.32;;
52978;SDS011;63430;53.186;6.598;2022-11-20T12:02:05;6.72;;;4.53;;
52978;SDS011;63430;53.186;6.598;2022-11-20T12:04:24;7.70;;;5.22;;
52978;SDS011;63430;53.186;6.598;2022-11-20T12:06:41;8.23;;;5.22;;
52978;SDS011;63430;53.186;6.598;2022-11-20T12:08:48;10.95;;;5.68;;
52978;SDS011;63430;53.186;6.598;2022-11-20T12:10:58;7.63;;;4.95;;
52978;SDS011;63430;53.186;6.598;2022-11-20T12:13:09;10.00;;;5.32;;
52978;SDS011;63430;53.186;6.598;2022-11-20T12:15:23;7.00;;;4.88;;
52978;SDS011;63430;53.186;6.598;2022-11-20T12:17:30;7.00;;;5.03;;
52978;SDS011;63430;53.186;6.598;2022-11-20T12:19:34;8.63;;;5.10;;
52978;SDS011;63430;53.186;6.598;2022-11-20T12:21:38;8.32;;;5.35;;
52978;SDS011;63430;53.186;6.598;2022-11-20T12:24:02;8.90;;;5.28;;
52978;SDS011;63430;53.186;6.598;2022-11-20T12:26:22;8.52;;;4.88;;
52978;SDS011;63430;53.186;6.598;2022-11-20T12:28:43;8.77;;;5.07;;
52978;SDS011;63430;53.186;6.598;2022-11-20T12:30:56;7.13;;;5.10;;
52978;SDS011;63430;53.186;6.598;2022-11-20T12:33:17;8.18;;;4.50;;
52978;SDS011;63430;53.186;6.598;2022-11-20T12:35:32;9.02;;;5.05;;
52978;SDS011;63430;53.186;6.598;2022-11-20T12:37:48;7.80;;;5.40;;
52978;SDS011;63430;53.186;6.598;2022-11-20T12:40:01;7.15;;;4.68;;
52978;SDS011;63430;53.186;6.598;2022-11-20T12:47:49;4.82;;;3.80;;
52978;SDS011;63430;53.186;6.598;2022-11-20T12:50:08;5.75;;;3.92;;
52978;SDS011;63430;53.186;6.598;2022-11-20T12:52:28;5.65;;;3.72;;